Time;durP1;ratioP1;P1;durP2;ratioP2;P2;SDS_P1;SDS_P2;PMS_P1;PMS_P2;Temp;Humidity;BMP_temperature;BMP_pressure;BME280_temperature;BME280_humidity;BME280_pressure;Samples;Min_cycle;Max_cycle;Signal;HPM_P1;HPM_P2
2021/03/08 00:01:30;;;;;;;9.13;2.30;;;22.00;59.40;;;;;;5066588;28;20025;-75
2021/03/08 00:03:56;;;;;;;6.78;1.70;;;22.00;59.40;;;;;;5074703;28;20114;-75
2021/03/08 00:06:23;;;;;;;10.02;2.75;;;22.00;59.50;;;;;;5073603;28;20024;-75
2021/03/08 00:08:49;;;;;;;6.78;2.92;;;21.90;59.40;;;;;;5074205;28;20069;-75
2021/03/08 00:11:16;;;;;;;7.50;1.60;;;21.90;59.40;;;;;;5067399;28;20021;-72
2021/03/08 00:13:42;;;;;;;7.95;1.75;;;21.90;59.50;;;;;;5054400;28;20052;-75
2021/03/08 00:16:09;;;;;;;8.38;2.17;;;22.00;59.60;;;;;;5069321;28;20017;-75
2021/03/08 00:18:36;;;;;;;11.57;2.63;;;21.90;59.60;;;;;;5072920;28;20055;-75
2021/03/08 00:21:02;;;;;;;8.57;1.75;;;21.90;59.60;;;;;;5075178;28;20054;-73
2021/03/08 00:23:29;;;;;;;9.60;2.33;;;21.90;59.60;;;;;;5070864;28;20495;-75
2021/03/08 00:25:55;;;;;;;6.50;1.60;;;21.90;59.70;;;;;;5069126;28;20086;-75
2021/03/08 00:28:22;;;;;;;7.35;1.60;;;21.90;59.70;;;;;;5074590;28;20032;-74
2021/03/08 00:30:48;;;;;;;7.80;1.50;;;21.90;59.70;;;;;;5069970;28;20110;-73
2021/03/08 00:33:15;;;;;;;6.47;2.05;;;21.90;59.80;;;;;;5065838;28;20036;-75
2021/03/08 00:35:41;;;;;;;4.00;2.05;;;21.90;59.80;;;;;;5068852;28;20387;-75
2021/03/08 00:38:08;;;;;;;10.25;2.03;;;21.90;59.90;;;;;;5071631;28;20036;-75
2021/03/08 00:40:34;;;;;;;6.63;2.75;;;21.90;59.90;;;;;;5073029;28;20020;-73
2021/03/08 00:43:01;;;;;;;5.70;2.33;;;21.90;59.90;;;;;;5068442;28;20056;-71
2021/03/08 00:45:27;;;;;;;10.02;1.90;;;21.90;59.90;;;;;;5068111;28;20025;-71
2021/03/08 00:47:54;;;;;;;5.43;1.60;;;21.90;59.90;;;;;;5072826;28;20093;-70
2021/03/08 00:50:26;;;;;;;7.30;2.10;;;21.90;59.90;;;;;;5055333;28;20028;-71
2021/03/08 00:52:53;;;;;;;10.40;3.42;;;21.80;59.90;;;;;;5071873;28;20023;-72
2021/03/08 00:55:20;;;;;;;6.95;1.95;;;21.90;60.00;;;;;;5072275;28;20407;-71
2021/03/08 00:57:46;;;;;;;15.13;2.65;;;21.90;59.90;;;;;;5074629;28;20476;-71
2021/03/08 01:00:16;;;;;;;8.13;2.05;;;21.80;59.90;;;;;;5071043;28;20028;-71
2021/03/08 01:02:43;;;;;;;9.00;2.15;;;21.90;60.00;;;;;;5069879;28;20035;-71
2021/03/08 01:05:10;;;;;;;6.00;1.60;;;21.90;60.10;;;;;;5068803;28;20028;-71
2021/03/08 01:07:37;;;;;;;7.82;2.20;;;21.80;60.10;;;;;;5047832;28;20050;-72
2021/03/08 01:10:09;;;;;;;7.20;1.73;;;21.80;60.10;;;;;;5071687;28;20017;-72
2021/03/08 01:12:36;;;;;;;7.43;2.60;;;21.80;60.10;;;;;;5069938;28;20017;-72
2021/03/08 01:15:03;;;;;;;6.40;1.83;;;21.80;60.20;;;;;;5071081;28;20028;-72
2021/03/08 01:17:30;;;;;;;8.10;2.92;;;21.80;60.20;;;;;;5073584;28;20024;-72
2021/03/08 01:19:56;;;;;;;6.70;2.13;;;21.80;60.20;;;;;;5068341;28;20040;-71
2021/03/08 01:22:23;;;;;;;8.60;2.10;;;21.80;60.20;;;;;;5070559;28;20377;-70
2021/03/08 01:24:49;;;;;;;7.68;2.40;;;21.80;60.30;;;;;;5068839;28;20032;-71
2021/03/08 01:27:16;;;;;;;5.70;1.83;;;21.70;60.30;;;;;;5069966;28;20024;-71
2021/03/08 01:29:42;;;;;;;6.70;2.00;;;21.70;60.40;;;;;;5067709;28;20361;-71
2021/03/08 01:32:09;;;;;;;11.50;3.20;;;21.70;60.40;;;;;;5069717;28;20046;-71
2021/03/08 01:34:35;;;;;;;7.95;3.60;;;21.70;60.40;;;;;;5070774;28;20033;-71
2021/03/08 01:37:02;;;;;;;9.15;3.45;;;21.70;60.40;;;;;;5071370;28;20430;-71
2021/03/08 01:39:28;;;;;;;8.90;3.38;;;21.70;60.40;;;;;;5064337;28;20035;-71
2021/03/08 01:41:55;;;;;;;6.78;2.25;;;21.70;60.50;;;;;;5071681;28;20040;-71
2021/03/08 01:44:21;;;;;;;7.47;2.08;;;21.70;60.50;;;;;;5047029;28;20457;-71
2021/03/08 01:46:49;;;;;;;7.03;2.38;;;21.70;60.50;;;;;;5069858;28;20024;-71
2021/03/08 01:49:16;;;;;;;9.40;3.00;;;21.70;60.60;;;;;;5046226;28;20067;-72
2021/03/08 01:51:44;;;;;;;9.70;2.47;;;21.70;60.60;;;;;;5070699;28;20232;-71
2021/03/08 01:54:11;;;;;;;8.32;2.20;;;21.70;60.60;;;;;;5065629;28;20031;-70
2021/03/08 01:56:37;;;;;;;8.77;2.40;;;21.70;60.70;;;;;;5068776;28;20032;-71
2021/03/08 01:59:04;;;;;;;10.85;2.58;;;21.60;60.70;;;;;;5070675;28;20024;-71
2021/03/08 02:01:30;;;;;;;11.55;2.65;;;21.60;60.80;;;;;;5071168;28;20032;-74
2021/03/08 02:03:57;;;;;;;16.02;3.55;;;21.60;60.90;;;;;;5070929;28;20096;-71
2021/03/08 02:06:24;;;;;;;7.43;2.15;;;21.60;61.00;;;;;;5064810;28;20044;-71
2021/03/08 02:08:50;;;;;;;10.05;3.05;;;21.60;61.00;;;;;;5071701;28;20407;-71
2021/03/08 02:11:17;;;;;;;11.30;2.88;;;21.60;60.90;;;;;;5066850;28;20025;-70
2021/03/08 02:14:32;;;;;;;6.60;2.17;;;21.70;61.00;;;;;;5068054;28;20100;-71
2021/03/08 02:17:16;;;;;;;10.25;3.42;;;21.60;61.60;;;;;;5002864;28;20033;-71
2021/03/08 02:20:16;;;;;;;13.73;4.43;;;21.60;60.90;;;;;;4999849;28;1962594;-71
2021/03/08 02:23:01;;;;;;;6.88;2.75;;;21.60;61.00;;;;;;5070466;28;20028;-71
2021/03/08 02:25:30;;;;;;;5.65;2.65;;;21.60;61.00;;;;;;5070475;28;20044;-71
2021/03/08 02:28:15;;;;;;;18.13;3.72;;;21.60;61.00;;;;;;5068293;28;20032;-71
2021/03/08 02:30:48;;;;;;;14.02;2.83;;;21.60;61.10;;;;;;5070650;28;20460;-72
2021/03/08 02:33:27;;;;;;;9.88;3.40;;;21.60;61.10;;;;;;5069290;28;20094;-71
2021/03/08 02:35:57;;;;;;;5.07;2.13;;;21.50;61.10;;;;;;5069314;28;20531;-71
2021/03/08 02:38:30;;;;;;;9.85;1.80;;;21.50;61.10;;;;;;5069211;28;20372;-71
2021/03/08 02:41:08;;;;;;;6.53;2.00;;;21.60;61.10;;;;;;5050401;28;20024;-71
2021/03/08 02:43:46;;;;;;;5.80;1.73;;;21.50;61.10;;;;;;5045489;28;20031;-71
2021/03/08 02:46:34;;;;;;;10.25;2.55;;;21.50;61.10;;;;;;5065629;28;20032;-71
2021/03/08 02:49:27;;;;;;;8.15;2.15;;;21.50;61.10;;;;;;5042115;28;20048;-72
2021/03/08 02:52:09;;;;;;;4.68;1.52;;;21.50;61.10;;;;;;5046689;28;20119;-71
2021/03/08 02:54:40;;;;;;;5.78;2.42;;;21.50;61.10;;;;;;5051770;28;20051;-71
2021/03/08 02:57:09;;;;;;;7.10;1.52;;;21.50;61.00;;;;;;5054890;28;20820;-71
2021/03/08 02:59:46;;;;;;;4.90;1.70;;;21.50;61.10;;;;;;5050346;28;20150;-71
2021/03/08 03:02:13;;;;;;;10.27;1.75;;;21.50;61.00;;;;;;5047800;28;20034;-71
2021/03/08 03:04:41;;;;;;;9.15;1.88;;;21.50;61.10;;;;;;5052851;28;20043;-71
2021/03/08 03:07:11;;;;;;;7.55;1.80;;;21.50;61.10;;;;;;5045648;28;20033;-73
2021/03/08 03:09:41;;;;;;;5.75;2.08;;;21.50;61.20;;;;;;5070910;28;20064;-72
2021/03/08 03:12:10;;;;;;;5.70;1.83;;;21.50;61.20;;;;;;5051051;28;20077;-73
2021/03/08 03:14:38;;;;;;;8.75;2.08;;;21.50;61.20;;;;;;5050345;28;20033;-73
2021/03/08 03:17:11;;;;;;;7.53;1.60;;;21.50;61.20;;;;;;5071252;28;20052;-71
2021/03/08 03:19:46;;;;;;;9.20;1.73;;;21.50;61.20;;;;;;5061144;28;20094;-71
2021/03/08 03:22:14;;;;;;;8.40;2.25;;;21.40;61.20;;;;;;5049871;28;20035;-71
2021/03/08 03:24:41;;;;;;;6.78;2.22;;;21.40;61.20;;;;;;5070557;28;20115;-74
2021/03/08 03:27:08;;;;;;;4.50;1.73;;;21.40;61.20;;;;;;5070572;28;20406;-72
2021/03/08 03:29:37;;;;;;;6.50;1.70;;;21.40;61.20;;;;;;5071707;28;20036;-74
2021/03/08 03:32:05;;;;;;;9.18;2.72;;;21.40;61.20;;;;;;5068030;28;20123;-74
2021/03/08 03:34:33;;;;;;;9.10;2.42;;;21.40;61.20;;;;;;5068193;28;20063;-75
2021/03/08 03:37:00;;;;;;;8.55;2.47;;;21.40;61.20;;;;;;5068646;28;20013;-71
2021/03/08 03:39:27;;;;;;;8.02;1.92;;;21.40;61.30;;;;;;5071382;28;20029;-76
2021/03/08 03:41:54;;;;;;;11.25;3.25;;;21.40;61.40;;;;;;5071181;28;20567;-73
2021/03/08 03:44:22;;;;;;;6.90;2.30;;;21.40;61.30;;;;;;5069186;28;20530;-74
2021/03/08 03:46:49;;;;;;;10.65;3.40;;;21.30;61.20;;;;;;5068843;28;20107;-72
2021/03/08 03:49:17;;;;;;;9.32;2.20;;;21.40;61.20;;;;;;5060072;28;20052;-73
2021/03/08 03:51:44;;;;;;;6.97;2.20;;;21.30;61.10;;;;;;5061603;28;20135;-74
2021/03/08 03:54:11;;;;;;;6.32;2.17;;;21.30;61.60;;;;;;5064253;28;20400;-73
2021/03/08 03:56:50;;;;;;;5.47;1.40;;;21.30;60.80;;;;;;5067804;28;20020;-78
2021/03/08 03:59:33;;;;;;;7.80;2.13;;;21.30;60.60;;;;;;5075919;28;20049;-77
2021/03/08 04:02:04;;;;;;;7.70;2.53;;;21.30;60.40;;;;;;5065279;28;20021;-78
2021/03/08 04:04:39;;;;;;;9.23;1.92;;;21.30;60.10;;;;;;5071860;28;20527;-77
2021/03/08 04:07:08;;;;;;;4.82;2.03;;;21.30;59.80;;;;;;5067021;28;20052;-81
2021/03/08 04:09:39;;;;;;;13.55;8.52;;;21.30;59.50;;;;;;5071827;28;20063;-75
2021/03/08 04:12:09;;;;;;;17.15;10.70;;;21.30;59.20;;;;;;5066114;28;20075;-75
2021/03/08 04:14:38;;;;;;;15.13;10.85;;;21.30;59.00;;;;;;5047656;28;20442;-75
2021/03/08 04:17:06;;;;;;;16.33;7.07;;;21.30;58.70;;;;;;5068399;28;20020;-75
2021/03/08 04:19:35;;;;;;;9.88;6.13;;;21.30;58.60;;;;;;5049465;28;20099;-77
2021/03/08 04:22:06;;;;;;;11.75;4.90;;;21.30;58.50;;;;;;5067969;28;20041;-76
2021/03/08 04:24:36;;;;;;;9.68;5.60;;;21.30;58.20;;;;;;5066443;28;20109;-79
2021/03/08 04:27:06;;;;;;;9.38;4.25;;;21.30;58.00;;;;;;5067687;28;20025;-77
2021/03/08 04:29:41;;;;;;;11.48;4.38;;;21.30;57.80;;;;;;5066706;28;20033;-77
2021/03/08 04:32:08;;;;;;;;;;;21.30;57.70;;;;;;5062767;28;20052;-78
2021/03/08 04:34:36;;;;;;;6.45;2.85;;;21.30;57.60;;;;;;5066239;28;19971;-78
2021/03/08 04:37:05;;;;;;;5.50;2.00;;;21.30;57.40;;;;;;5067379;28;20031;-74
2021/03/08 04:39:36;;;;;;;5.88;2.05;;;21.30;57.20;;;;;;5070786;28;20021;-72
2021/03/08 04:42:04;;;;;;;8.32;1.85;;;21.30;57.60;;;;;;5065254;28;20170;-74
2021/03/08 04:44:32;;;;;;;5.82;2.15;;;21.30;57.10;;;;;;5070727;28;20044;-72
2021/03/08 04:47:00;;;;;;;6.30;1.63;;;21.30;57.00;;;;;;5067008;28;20380;-75
2021/03/08 04:50:06;;;;;;;8.45;1.80;;;21.20;56.90;;;;;;5068124;28;20020;-72
2021/03/08 04:52:52;;;;;;;;;;;21.20;56.90;;;;;;5072606;28;20056;-73
2021/03/08 04:55:21;;;;;;;8.27;1.70;;;21.20;56.90;;;;;;5069670;28;19913;-74
2021/03/08 04:58:27;;;;;;;5.80;1.48;;;21.20;56.80;;;;;;5071234;28;20055;-73
2021/03/08 05:01:36;;;;;;;5.97;1.40;;;21.20;56.80;;;;;;5071849;28;20016;-71
2021/03/08 05:04:43;;;;;;;7.18;1.50;;;21.20;56.60;;;;;;5067352;28;20112;-74
2021/03/08 05:07:49;;;;;;;6.10;1.63;;;21.20;56.50;;;;;;5052360;28;20051;-75
2021/03/08 05:10:55;;;;;;;7.60;1.73;;;21.30;56.30;;;;;;5072733;28;20071;-75
2021/03/08 05:14:02;;;;;;;8.68;2.08;;;21.20;56.10;;;;;;5071335;28;20043;-73
2021/03/08 05:16:48;;;;;;;;;;;21.30;56.10;;;;;;5069411;28;20090;-72
2021/03/08 05:19:54;;;;;;;6.15;1.92;;;21.20;55.90;;;;;;5069909;28;20295;-71
2021/03/08 05:23:00;;;;;;;8.23;1.77;;;21.30;55.90;;;;;;5070153;28;20115;-71
2021/03/08 05:26:07;;;;;;;4.28;2.25;;;21.30;55.80;;;;;;5066545;28;20039;-71
2021/03/08 05:29:13;;;;;;;6.95;1.83;;;21.30;55.70;;;;;;5071017;28;20166;-72
2021/03/08 05:31:47;;;;;;;7.35;2.40;;;21.30;55.70;;;;;;5071098;28;20388;-70
2021/03/08 05:34:17;;;;;;;42.22;38.10;;;21.30;55.60;;;;;;5066678;28;20081;-70
2021/03/08 05:37:04;;;;;;;34.33;25.27;;;21.30;55.00;;;;;;5070693;28;20029;-71
2021/03/08 05:39:36;;;;;;;19.60;17.35;;;21.30;55.10;;;;;;5064106;28;20024;-72
2021/03/08 05:42:14;;;;;;;14.88;13.32;;;21.30;55.60;;;;;;5066043;28;20032;-69
2021/03/08 05:45:16;;;;;;;16.35;10.50;;;21.30;55.20;;;;;;5067527;28;20034;-69
2021/03/08 05:48:17;;;;;;;12.68;6.20;;;21.30;55.20;;;;;;5058575;28;20028;-72
2021/03/08 05:50:58;;;;;;;9.45;5.45;;;21.30;55.10;;;;;;5064752;28;20032;-70
2021/03/08 05:53:24;;;;;;;10.23;5.47;;;21.30;55.60;;;;;;5065733;28;20511;-69
2021/03/08 05:56:11;;;;;;;11.40;5.78;;;21.30;54.80;;;;;;5068763;28;20024;-70
2021/03/08 05:59:26;;;;;;;10.93;3.83;;;21.30;54.80;;;;;;5071076;28;20028;-70
2021/03/08 06:02:04;;;;;;;5.95;2.75;;;21.30;54.60;;;;;;4998047;28;20117;-69
2021/03/08 06:05:07;;;;;;;8.10;2.30;;;21.30;54.50;;;;;;4999341;28;20457;-68
2021/03/08 06:07:58;;;;;;;6.25;2.20;;;21.40;54.40;;;;;;5059944;28;20036;-71
2021/03/08 06:10:26;;;;;;;5.22;1.88;;;21.40;54.30;;;;;;5063788;28;20024;-69
2021/03/08 06:13:01;;;;;;;6.40;2.00;;;21.40;54.20;;;;;;5065890;28;20028;-69
2021/03/08 06:15:33;;;;;;;7.05;1.83;;;21.40;54.20;;;;;;5065420;28;20025;-70
2021/03/08 06:18:02;;;;;;;4.80;1.52;;;21.40;54.00;;;;;;5068012;28;20023;-70
2021/03/08 06:20:32;;;;;;;5.18;1.70;;;21.40;53.90;;;;;;5065780;28;20040;-71
2021/03/08 06:23:01;;;;;;;5.13;1.38;;;21.40;53.70;;;;;;5067672;28;20180;-70
2021/03/08 06:25:29;;;;;;;6.80;2.05;;;21.50;53.70;;;;;;5064918;28;20031;-69
2021/03/08 06:27:58;;;;;;;4.43;1.30;;;21.50;53.60;;;;;;5065000;28;20024;-69
2021/03/08 06:30:27;;;;;;;4.40;1.63;;;21.50;53.40;;;;;;5063001;28;20029;-69
2021/03/08 06:32:55;;;;;;;6.15;1.40;;;21.50;53.40;;;;;;5064946;28;20024;-69
2021/03/08 06:36:01;;;;;;;7.07;1.65;;;21.50;53.20;;;;;;5064111;28;20032;-69
2021/03/08 06:38:32;;;;;;;5.45;1.17;;;21.50;53.10;;;;;;5066356;28;20515;-70
2021/03/08 06:41:38;;;;;;;6.28;1.83;;;21.50;52.90;;;;;;5068058;28;20029;-70
2021/03/08 06:44:18;;;;;;;3.08;1.42;;;21.50;52.80;;;;;;5060149;28;20033;-70
2021/03/08 06:46:45;;;;;;;5.95;1.70;;;21.50;52.80;;;;;;5048671;28;20036;-69
2021/03/08 06:49:12;;;;;;;7.63;6.25;;;21.60;52.70;;;;;;5068188;28;20047;-69
2021/03/08 06:52:05;;;;;;;9.27;5.65;;;21.60;52.70;;;;;;5067068;28;20025;-70
2021/03/08 06:54:34;;;;;;;10.43;4.55;;;21.60;52.70;;;;;;5066685;28;20130;-70
2021/03/08 06:57:02;;;;;;;5.50;2.90;;;21.60;52.60;;;;;;5069016;28;20069;-70
2021/03/08 06:59:29;;;;;;;6.10;2.90;;;21.60;52.50;;;;;;5064687;28;20066;-70
2021/03/08 07:01:56;;;;;;;3.78;2.10;;;21.70;52.40;;;;;;5066827;28;20020;-70
2021/03/08 07:04:25;;;;;;;5.13;2.13;;;21.70;52.30;;;;;;5062662;28;20036;-70
2021/03/08 07:07:03;;;;;;;5.43;1.63;;;21.70;52.10;;;;;;5068595;28;20040;-70
2021/03/08 07:09:31;;;;;;;3.70;1.00;;;21.70;52.10;;;;;;5069008;28;20032;-69
2021/03/08 07:12:10;;;;;;;5.75;1.25;;;21.70;52.00;;;;;;5067476;28;20028;-70
2021/03/08 07:14:38;;;;;;;2.58;1.05;;;21.70;51.90;;;;;;5067990;28;20016;-69
2021/03/08 07:17:30;;;;;;;4.82;1.55;;;21.80;51.80;;;;;;5063718;28;20123;-71
2021/03/08 07:20:01;;;;;;;3.03;1.10;;;21.80;51.80;;;;;;5068636;28;20424;-74
2021/03/08 07:22:44;;;;;;;5.15;1.75;;;21.80;51.60;;;;;;5068564;28;20025;-73
2021/03/08 07:25:27;;;;;;;4.05;0.95;;;21.80;51.60;;;;;;5068513;28;20135;-72
2021/03/08 07:27:57;;;;;;;4.18;0.88;;;21.80;51.60;;;;;;5066982;28;20094;-72
2021/03/08 07:30:32;;;;;;;4.03;1.10;;;21.80;51.60;;;;;;5067788;28;20058;-74
2021/03/08 07:32:59;;;;;;;;;;;21.90;51.60;;;;;;5068173;28;20383;-71
2021/03/08 07:35:46;;;;;;;4.60;1.10;;;21.90;51.40;;;;;;5068303;28;19995;-74
2021/03/08 07:38:27;;;;;;;4.43;1.08;;;21.90;51.20;;;;;;5068379;28;20016;-74
2021/03/08 07:41:15;;;;;;;3.92;1.02;;;22.00;51.20;;;;;;5045650;28;20024;-73
2021/03/08 07:43:43;;;;;;;9.68;3.92;;;22.00;51.10;;;;;;5063727;28;20032;-72
2021/03/08 07:46:32;;;;;;;12.00;10.20;;;22.00;51.00;;;;;;5067837;28;20098;-73
2021/03/08 07:49:00;;;;;;;9.10;7.10;;;22.00;50.80;;;;;;5070480;28;20021;-72
2021/03/08 07:51:27;;;;;;;8.98;6.43;;;22.10;50.70;;;;;;5067762;28;20009;-73
2021/03/08 07:54:09;;;;;;;7.78;5.20;;;22.10;50.70;;;;;;5069243;28;20043;-72
2021/03/08 07:56:35;;;;;;;6.22;3.80;;;22.10;50.50;;;;;;5068194;28;20025;-72
2021/03/08 07:59:02;;;;;;;5.75;3.75;;;22.20;50.50;;;;;;5049796;28;20032;-76
2021/03/08 08:01:29;;;;;;;8.27;2.90;;;22.20;50.40;;;;;;5068342;28;20488;-72
2021/03/08 08:03:56;;;;;;;4.18;2.15;;;22.20;50.20;;;;;;5069456;28;20052;-76
2021/03/08 08:06:24;;;;;;;4.22;1.85;;;22.20;50.00;;;;;;5066235;28;20038;-73
2021/03/08 08:08:55;;;;;;;3.03;1.90;;;22.20;49.80;;;;;;5067904;28;20024;-70
2021/03/08 08:11:27;;;;;;;3.90;1.48;;;22.30;49.90;;;;;;5069420;28;20024;-72
2021/03/08 08:13:57;;;;;;;5.78;1.30;;;22.20;49.80;;;;;;5046718;28;20488;-69
2021/03/08 08:16:28;;;;;;;5.38;1.50;;;22.30;49.70;;;;;;5066782;28;20029;-68
2021/03/08 08:19:03;;;;;;;4.03;1.30;;;22.30;49.50;;;;;;5063908;28;20024;-70
2021/03/08 08:21:38;;;;;;;7.15;1.30;;;22.30;49.60;;;;;;5066057;28;20039;-73
2021/03/08 08:24:09;;;;;;;5.35;1.10;;;22.30;49.50;;;;;;5067980;28;20029;-69
2021/03/08 08:26:35;;;;;;;4.80;1.20;;;22.40;49.40;;;;;;5071678;28;20028;-71
2021/03/08 08:29:02;;;;;;;4.00;1.00;;;22.40;49.40;;;;;;5068215;28;20028;-68
2021/03/08 08:32:02;;;;;;;5.93;1.33;;;22.40;49.50;;;;;;5070992;28;20044;-69
2021/03/08 08:34:39;;;;;;;5.82;1.60;;;22.40;49.50;;;;;;5053753;28;20111;-72
2021/03/08 08:37:20;;;;;;;4.32;2.28;;;22.50;49.20;;;;;;5066804;28;20053;-69
2021/03/08 08:39:53;;;;;;;5.57;2.40;;;22.60;49.10;;;;;;5070957;28;20071;-69
2021/03/08 08:42:26;;;;;;;8.43;2.50;;;22.60;49.00;;;;;;5075359;28;20024;-69
2021/03/08 08:44:57;;;;;;;6.82;2.08;;;22.60;49.10;;;;;;5071347;28;20502;-69
2021/03/08 08:47:32;;;;;;;5.70;1.38;;;22.70;48.90;;;;;;5071147;28;20028;-71
2021/03/08 08:50:09;;;;;;;6.57;1.60;;;22.70;48.80;;;;;;5073182;28;20012;-73
2021/03/08 08:52:53;;;;;;;5.57;1.25;;;22.80;48.60;;;;;;5071350;28;20036;-69
2021/03/08 08:55:36;;;;;;;4.38;1.60;;;22.80;48.30;;;;;;5071672;28;20036;-71
2021/03/08 08:58:22;;;;;;;1.88;1.10;;;22.80;48.20;;;;;;5067237;28;20434;-68
2021/03/08 09:01:28;;;;;;;4.72;1.58;;;22.90;48.10;;;;;;5071974;28;20024;-68
2021/03/08 09:03:56;;;;;;;6.68;1.48;;;22.90;48.00;;;;;;5071024;28;20397;-69
2021/03/08 09:06:40;;;;;;;5.47;1.30;;;22.90;48.00;;;;;;5072057;28;20468;-68
2021/03/08 09:09:32;;;;;;;5.13;1.25;;;22.90;47.70;;;;;;5073072;28;20557;-68
2021/03/08 09:12:37;;;;;;;3.88;1.23;;;22.90;47.60;;;;;;5072360;28;20017;-70
2021/03/08 09:15:15;;;;;;;3.85;1.27;;;23.00;47.30;;;;;;5029965;28;20033;-69
2021/03/08 09:17:48;;;;;;;4.07;0.95;;;23.00;47.10;;;;;;5068965;28;20017;-69
2021/03/08 09:20:18;;;;;;;4.57;1.15;;;23.10;46.90;;;;;;5074011;28;20510;-72
2021/03/08 09:22:50;;;;;;;3.65;2.97;;;23.10;46.90;;;;;;5069629;28;20060;-70
2021/03/08 09:25:27;;;;;;;6.50;3.17;;;23.10;46.60;;;;;;5068562;28;20037;-71
2021/03/08 09:28:10;;;;;;;8.85;2.75;;;23.20;46.70;;;;;;5071656;28;20020;-75
2021/03/08 09:30:48;;;;;;;3.40;1.60;;;23.20;46.70;;;;;;5070662;28;20020;-70
2021/03/08 09:33:19;;;;;;;4.97;1.88;;;23.20;46.40;;;;;;5059900;28;20033;-68
2021/03/08 09:35:52;;;;;;;3.90;1.38;;;23.30;46.30;;;;;;5069557;28;20025;-72
2021/03/08 09:38:20;;;;;;;4.55;1.55;;;23.30;46.40;;;;;;5069273;28;20028;-69
2021/03/08 09:40:50;;;;;;;5.32;1.65;;;23.40;46.30;;;;;;5068981;28;20016;-76
2021/03/08 09:43:34;;;;;;;4.53;1.33;;;23.40;46.30;;;;;;5068627;28;20077;-75
2021/03/08 09:46:16;;;;;;;5.18;1.40;;;23.50;46.50;;;;;;5069008;28;20151;-74
2021/03/08 09:48:51;;;;;;;4.50;1.58;;;23.60;46.50;;;;;;5067194;28;20394;-70
2021/03/08 09:51:20;;;;;;;4.60;1.40;;;23.60;46.60;;;;;;5069540;28;20690;-69
2021/03/08 09:53:52;;;;;;;3.78;1.38;;;23.60;46.50;;;;;;5050924;28;20070;-69
2021/03/08 09:56:24;;;;;;;5.72;1.40;;;23.70;46.30;;;;;;5049586;28;20128;-70
2021/03/08 09:59:05;;;;;;;5.38;1.20;;;23.70;46.20;;;;;;5067188;28;20104;-68
2021/03/08 10:01:32;;;;;;;4.82;1.23;;;23.80;46.00;;;;;;5067555;28;20033;-72
2021/03/08 10:03:58;;;;;;;3.28;1.10;;;23.80;45.90;;;;;;5068904;28;20625;-69
2021/03/08 10:06:31;;;;;;;3.03;1.13;;;23.80;46.00;;;;;;5069061;28;20479;-69
2021/03/08 10:09:15;;;;;;;7.55;2.40;;;23.90;46.20;;;;;;5067464;28;20114;-69
2021/03/08 10:11:41;;;;;;;4.32;1.77;;;23.90;46.20;;;;;;5073231;28;20020;-68
2021/03/08 10:14:24;;;;;;;6.78;2.60;;;24.00;46.10;;;;;;5069280;28;20028;-68
2021/03/08 10:17:02;;;;;;;5.40;2.55;;;24.00;46.00;;;;;;5067708;28;20040;-70
2021/03/08 10:19:33;;;;;;;3.45;1.50;;;24.00;46.10;;;;;;5047822;28;20055;-68
2021/03/08 10:21:59;;;;;;;4.43;1.70;;;24.10;46.10;;;;;;5069216;28;20021;-69
2021/03/08 10:24:42;;;;;;;5.63;1.55;;;24.20;46.10;;;;;;5068344;28;20035;-70
2021/03/08 10:27:10;;;;;;;6.35;1.35;;;24.30;46.10;;;;;;5067059;28;20037;-70
2021/03/08 10:29:39;;;;;;;6.70;2.65;;;24.30;46.00;;;;;;5070051;28;20036;-70
2021/03/08 10:32:08;;;;;;;6.57;2.65;;;24.30;45.80;;;;;;5067096;28;20636;-69
2021/03/08 10:34:36;;;;;;;6.82;2.33;;;24.30;45.40;;;;;;5063327;28;20025;-69
2021/03/08 10:37:04;;;;;;;6.22;2.10;;;24.30;45.50;;;;;;5063094;28;20067;-70
2021/03/08 10:39:34;;;;;;;4.78;1.48;;;24.30;44.90;;;;;;5066038;28;20016;-70
2021/03/08 10:42:00;;;;;;;4.13;1.63;;;24.30;45.20;;;;;;5068958;28;20028;-69
2021/03/08 10:45:04;;;;;;;9.38;2.25;;;24.30;45.60;;;;;;5065231;28;20076;-69
2021/03/08 10:47:31;;;;;;;4.78;0.90;;;24.30;45.50;;;;;;5064358;28;20028;-68
2021/03/08 10:50:07;;;;;;;2.88;1.00;;;24.30;45.60;;;;;;5066362;28;20020;-69
2021/03/08 10:52:34;;;;;;;2.20;1.02;;;24.40;45.60;;;;;;5065486;28;20029;-68
2021/03/08 10:55:02;;;;;;;3.22;1.30;;;24.40;45.50;;;;;;5064491;28;20309;-69
2021/03/08 10:57:28;;;;;;;2.92;1.70;;;24.50;45.20;;;;;;5062032;28;20661;-70
2021/03/08 10:59:56;;;;;;;4.30;1.88;;;24.50;45.30;;;;;;5067575;28;20052;-69
2021/03/08 11:02:24;;;;;;;4.25;1.20;;;24.60;45.40;;;;;;5062794;28;20059;-70
2021/03/08 11:05:10;;;;;;;7.82;1.42;;;24.60;45.20;;;;;;5066698;28;20032;-69
2021/03/08 11:07:37;;;;;;;19.27;13.02;;;24.60;45.00;;;;;;5067439;28;20085;-69
2021/03/08 11:10:06;;;;;;;8.20;4.90;;;24.60;45.20;;;;;;5069010;28;20108;-71
2021/03/08 11:12:33;;;;;;;5.30;3.05;;;24.70;45.00;;;;;;5069255;28;20028;-68
2021/03/08 11:15:00;;;;;;;4.80;2.60;;;24.60;45.10;;;;;;5069292;28;20100;-68
2021/03/08 11:17:40;;;;;;;6.00;2.65;;;24.70;44.90;;;;;;5062616;28;20017;-71
2021/03/08 11:20:11;;;;;;;4.85;2.58;;;24.70;44.80;;;;;;5067338;28;20055;-70
2021/03/08 11:23:05;;;;;;;5.60;2.08;;;24.70;45.10;;;;;;5050919;28;20035;-70
2021/03/08 11:25:41;;;;;;;3.78;1.42;;;24.70;44.80;;;;;;5066203;28;20029;-70
2021/03/08 11:28:16;;;;;;;2.70;1.70;;;24.70;44.80;;;;;;5064603;28;20524;-69
2021/03/08 11:30:49;;;;;;;4.55;1.60;;;24.80;44.90;;;;;;5066831;28;20017;-70
2021/03/08 11:33:17;;;;;;;4.10;1.63;;;24.80;44.80;;;;;;5061480;28;20028;-69
2021/03/08 11:35:50;;;;;;;5.75;1.67;;;24.90;44.60;;;;;;5068349;28;20028;-68
2021/03/08 11:38:23;;;;;;;3.97;1.40;;;25.00;44.40;;;;;;5068057;28;20028;-69
2021/03/08 11:40:50;;;;;;;3.38;1.63;;;25.10;43.70;;;;;;5066080;28;20032;-70
2021/03/08 11:43:23;;;;;;;3.10;1.60;;;25.10;43.40;;;;;;5063947;28;20399;-71
2021/03/08 11:45:51;;;;;;;5.35;1.23;;;25.20;43.20;;;;;;5065239;28;20122;-69
2021/03/08 11:48:24;;;;;;;3.70;1.33;;;25.20;42.90;;;;;;5065577;28;20024;-69
2021/03/08 11:50:55;;;;;;;4.07;1.83;;;25.30;43.10;;;;;;5065693;28;20034;-69
2021/03/08 11:53:24;;;;;;;2.05;1.30;;;25.30;43.10;;;;;;5066315;28;20277;-70
2021/03/08 11:55:50;;;;;;;3.97;1.25;;;25.30;42.60;;;;;;5061542;28;20024;-69
2021/03/08 11:58:20;;;;;;;3.78;1.27;;;25.40;42.80;;;;;;5066001;28;20036;-69
2021/03/08 12:00:47;;;;;;;2.95;0.90;;;25.40;42.60;;;;;;5069893;28;20054;-70
2021/03/08 12:03:16;;;;;;;2.22;1.80;;;25.50;42.30;;;;;;5070567;28;20032;-68
2021/03/08 12:05:45;;;;;;;2.83;0.73;;;25.50;42.90;;;;;;5068716;28;20074;-70
2021/03/08 12:08:13;;;;;;;2.70;0.88;;;25.60;42.00;;;;;;5069695;28;20032;-68
2021/03/08 12:10:40;;;;;;;4.32;1.50;;;25.50;41.80;;;;;;5072343;28;20587;-71
2021/03/08 12:13:06;;;;;;;2.70;1.10;;;25.60;41.70;;;;;;5067789;28;20108;-70
2021/03/08 12:15:33;;;;;;;6.05;0.85;;;25.60;41.20;;;;;;5050449;28;20025;-70
2021/03/08 12:17:59;;;;;;;2.60;1.25;;;25.60;41.50;;;;;;5070223;28;20394;-69
2021/03/08 12:20:26;;;;;;;4.00;0.98;;;25.60;41.10;;;;;;5069059;28;20515;-70
2021/03/08 12:22:53;;;;;;;1.15;0.68;;;25.70;41.00;;;;;;5069468;28;20020;-69
2021/03/08 12:25:21;;;;;;;2.47;0.95;;;25.70;40.50;;;;;;5072595;28;20044;-69
2021/03/08 12:27:47;;;;;;;5.10;1.00;;;25.80;40.90;;;;;;5065548;28;20028;-69
2021/03/08 12:30:15;;;;;;;5.15;1.75;;;25.80;41.00;;;;;;5071517;28;20024;-68
2021/03/08 12:32:42;;;;;;;3.60;0.90;;;25.80;40.70;;;;;;5073365;28;20028;-71
2021/03/08 12:35:10;;;;;;;1.30;0.90;;;25.80;40.80;;;;;;5067357;28;20025;-69
2021/03/08 12:37:37;;;;;;;2.80;1.17;;;25.90;40.80;;;;;;5051570;28;20020;-71
2021/03/08 12:40:04;;;;;;;4.55;1.10;;;25.90;40.50;;;;;;5073960;28;20032;-69
2021/03/08 12:42:30;;;;;;;8.38;1.73;;;26.00;40.60;;;;;;5068619;28;20031;-70
2021/03/08 12:44:57;;;;;;;3.80;1.40;;;26.00;40.40;;;;;;5064407;28;20980;-70
2021/03/08 12:47:26;;;;;;;6.38;1.23;;;26.00;40.30;;;;;;5070493;28;20040;-70
2021/03/08 12:49:53;;;;;;;4.18;1.30;;;26.00;40.50;;;;;;5048784;28;20025;-69
2021/03/08 12:52:20;;;;;;;2.80;1.65;;;26.00;40.40;;;;;;5049217;28;20140;-70
2021/03/08 12:54:47;;;;;;;7.47;2.38;;;26.00;40.70;;;;;;5067483;28;20025;-70
2021/03/08 12:57:13;;;;;;;3.10;1.13;;;26.10;40.40;;;;;;5069419;28;20044;-69
2021/03/08 12:59:39;;;;;;;4.22;1.30;;;26.10;40.00;;;;;;5066646;28;20477;-68
2021/03/08 13:02:07;;;;;;;3.83;0.95;;;26.20;40.20;;;;;;5067814;28;20384;-69
2021/03/08 13:04:33;;;;;;;3.15;1.00;;;26.20;40.30;;;;;;5071623;28;20058;-70
2021/03/08 13:07:00;;;;;;;4.53;1.15;;;26.20;40.60;;;;;;5068868;28;20446;-71
2021/03/08 13:09:26;;;;;;;5.32;1.02;;;26.10;40.10;;;;;;5070824;28;20025;-69
2021/03/08 13:11:53;;;;;;;7.28;4.00;;;26.10;40.60;;;;;;5070142;28;20020;-68
2021/03/08 13:14:19;;;;;;;4.30;2.55;;;26.10;40.30;;;;;;5070469;28;20047;-67
2021/03/08 13:17:25;;;;;;;4.70;2.20;;;26.10;40.40;;;;;;5061717;28;20052;-67
2021/03/08 13:20:31;;;;;;;4.70;2.10;;;26.10;40.10;;;;;;5068837;28;20074;-68